createdAt,value
2022-12-16T00:00:08.887Z,22.42
2022-12-16T00:02:36.517Z,28.52
2022-12-16T00:05:04.296Z,25.48
2022-12-16T00:07:31.592Z,25.63
2022-12-16T00:09:58.922Z,27.00
2022-12-16T00:12:26.521Z,30.90
2022-12-16T00:14:53.820Z,26.05
2022-12-16T00:17:22.188Z,29.35
2022-12-16T00:19:49.506Z,26.08
2022-12-16T00:22:17.813Z,31.50
2022-12-16T00:24:45.259Z,28.95
2022-12-16T00:27:12.619Z,31.92
2022-12-16T00:29:39.884Z,32.30
2022-12-16T00:32:07.202Z,29.52
2022-12-16T00:34:35.302Z,29.80
2022-12-16T00:37:02.636Z,31.42
2022-12-16T00:39:29.941Z,35.65
2022-12-16T00:41:57.140Z,27.83
2022-12-16T00:44:24.406Z,31.15
2022-12-16T00:46:51.624Z,36.25
2022-12-16T00:49:19.062Z,33.25
2022-12-16T00:51:46.371Z,38.40
2022-12-16T00:54:13.598Z,32.80
2022-12-16T00:56:41.330Z,32.58
2022-12-16T00:59:08.562Z,34.70
2022-12-16T01:01:36.061Z,38.10
2022-12-16T01:04:03.544Z,39.30
2022-12-16T01:06:30.750Z,54.97
2022-12-16T01:08:58.054Z,39.83
2022-12-16T01:11:26.842Z,51.05
2022-12-16T01:13:55.096Z,43.30
2022-12-16T01:16:22.813Z,43.28
2022-12-16T01:18:50.105Z,45.58
2022-12-16T01:21:17.582Z,42.75
2022-12-16T01:23:44.849Z,52.53
2022-12-16T01:26:16.614Z,41.10
2022-12-16T01:28:44.679Z,46.28
2022-12-16T01:31:13.020Z,32.53
2022-12-16T01:33:40.611Z,34.90
2022-12-16T01:36:09.058Z,34.63
2022-12-16T01:38:36.840Z,29.27
2022-12-16T01:41:04.904Z,35.63
2022-12-16T01:43:35.891Z,36.47
2022-12-16T01:46:09.750Z,32.13
2022-12-16T01:48:45.618Z,35.08
2022-12-16T01:51:29.684Z,28.00
2022-12-16T01:54:00.340Z,33.78
2022-12-16T01:56:29.056Z,30.95
2022-12-16T01:58:57.338Z,35.13
2022-12-16T02:01:24.859Z,30.17
2022-12-16T02:03:53.029Z,35.30
2022-12-16T02:06:21.556Z,35.80
2022-12-16T02:08:53.430Z,39.17
2022-12-16T02:11:28.044Z,40.17
2022-12-16T02:14:04.378Z,36.85
2022-12-16T02:16:33.513Z,38.42
2022-12-16T02:19:22.393Z,39.28
2022-12-16T02:22:11.526Z,42.25
2022-12-16T02:25:00.384Z,45.38
2022-12-16T02:27:58.529Z,49.70
2022-12-16T02:30:46.059Z,37.70
2022-12-16T02:33:51.251Z,44.42
2022-12-16T02:36:26.577Z,41.15
2022-12-16T02:39:24.548Z,38.22
2022-12-16T02:41:58.653Z,42.85
2022-12-16T02:44:39.991Z,37.80
2022-12-16T02:47:07.222Z,40.75
2022-12-16T02:49:34.429Z,46.13
2022-12-16T02:52:02.126Z,46.95
2022-12-16T02:54:29.658Z,44.75
2022-12-16T02:57:18.427Z,41.33
2022-12-16T03:00:00.793Z,42.38
2022-12-16T03:02:41.683Z,45.15
2022-12-16T03:05:17.031Z,46.60
2022-12-16T03:07:45.221Z,54.10
2022-12-16T03:10:16.653Z,44.30
2022-12-16T03:12:45.664Z,47.13
2022-12-16T03:15:18.368Z,50.47
2022-12-16T03:17:48.402Z,43.83
2022-12-16T03:20:19.599Z,44.47
2022-12-16T03:22:48.297Z,42.83
2022-12-16T03:25:16.440Z,43.80
2022-12-16T03:28:29.858Z,46.60
2022-12-16T03:31:04.611Z,47.78
2022-12-16T03:33:48.377Z,46.40
2022-12-16T03:36:20.118Z,46.92
2022-12-16T03:38:47.609Z,46.53
2022-12-16T03:41:16.538Z,48.65
2022-12-16T03:43:43.951Z,48.80
2022-12-16T03:46:12.371Z,45.22
2022-12-16T03:48:46.384Z,47.45
2022-12-16T03:51:13.931Z,51.42
2022-12-16T03:53:41.153Z,41.08
2022-12-16T03:56:09.100Z,42.45
2022-12-16T03:58:37.935Z,45.42
2022-12-16T04:01:05.412Z,48.30
2022-12-16T04:03:33.087Z,45.70
2022-12-16T04:06:00.650Z,41.92
2022-12-16T04:08:27.983Z,45.85
2022-12-16T04:11:14.320Z,45.92
2022-12-16T04:14:00.155Z,45.88
2022-12-16T04:16:46.691Z,40.83
2022-12-16T04:19:53.675Z,41.95
2022-12-16T04:22:59.295Z,40.45
2022-12-16T04:25:34.889Z,38.10
2022-12-16T04:28:02.627Z,37.83
2022-12-16T04:30:34.872Z,46.63
2022-12-16T04:33:27.642Z,36.22
2022-12-16T04:36:13.549Z,39.05
2022-12-16T04:38:59.504Z,37.47
2022-12-16T04:41:45.403Z,43.38
2022-12-16T04:44:31.992Z,35.22
2022-12-16T04:47:18.182Z,41.17
2022-12-16T04:50:04.126Z,36.83
2022-12-16T04:52:49.855Z,37.28
2022-12-16T04:55:36.009Z,37.50
2022-12-16T04:58:22.276Z,36.53
2022-12-16T05:01:08.585Z,36.65
2022-12-16T05:03:54.564Z,32.60
2022-12-16T05:06:40.628Z,35.90
2022-12-16T05:09:26.400Z,33.50
2022-12-16T05:12:12.585Z,34.10
2022-12-16T05:14:59.051Z,33.63
2022-12-16T05:17:44.940Z,32.85
2022-12-16T05:20:30.819Z,36.75
2022-12-16T05:23:16.665Z,34.65
2022-12-16T05:26:02.662Z,30.75
2022-12-16T05:28:48.617Z,31.48
2022-12-16T05:31:34.541Z,29.42
2022-12-16T05:34:20.268Z,34.85
2022-12-16T05:37:06.195Z,34.10
2022-12-16T05:39:51.929Z,32.63
2022-12-16T05:42:37.976Z,39.85
2022-12-16T05:45:24.158Z,35.60
2022-12-16T05:48:09.857Z,41.95
2022-12-16T05:50:58.170Z,34.83
2022-12-16T05:53:43.996Z,38.97
2022-12-16T05:56:30.064Z,31.65
2022-12-16T05:59:16.077Z,33.78
2022-12-16T06:02:01.972Z,35.70
2022-12-16T06:04:48.076Z,29.80
2022-12-16T06:07:34.214Z,37.03
2022-12-16T06:10:20.126Z,32.45
2022-12-16T06:13:06.259Z,43.05
2022-12-16T06:15:52.268Z,36.40
2022-12-16T06:18:38.432Z,36.05
2022-12-16T06:21:24.125Z,36.78
2022-12-16T06:24:09.871Z,33.72
2022-12-16T06:26:55.957Z,31.83
2022-12-16T06:29:41.764Z,41.25
2022-12-16T06:32:27.584Z,35.83
2022-12-16T06:35:13.645Z,40.97
2022-12-16T06:37:59.629Z,35.78
2022-12-16T06:40:45.744Z,37.05
2022-12-16T06:43:31.946Z,40.85
2022-12-16T06:46:18.114Z,36.95
2022-12-16T06:49:04.025Z,39.17
2022-12-16T06:51:49.950Z,38.80
2022-12-16T06:54:35.973Z,36.80
2022-12-16T06:57:22.033Z,33.92
2022-12-16T07:00:07.747Z,40.78
2022-12-16T07:02:54.787Z,34.25
2022-12-16T07:05:41.014Z,38.08
2022-12-16T07:08:26.912Z,37.90
2022-12-16T07:11:17.172Z,30.30
2022-12-16T07:14:03.422Z,40.33
2022-12-16T07:16:49.469Z,38.58
2022-12-16T07:19:35.769Z,38.55
2022-12-16T07:22:21.745Z,35.60
2022-12-16T07:25:07.569Z,40.47
2022-12-16T07:27:53.617Z,36.38
2022-12-16T07:30:39.875Z,37.63
2022-12-16T07:33:25.748Z,36.50
2022-12-16T07:36:11.703Z,36.90
2022-12-16T07:38:57.485Z,38.67
2022-12-16T07:41:43.432Z,37.47
2022-12-16T07:44:29.829Z,36.53
2022-12-16T07:47:15.620Z,36.10
2022-12-16T07:50:01.728Z,32.70
2022-12-16T07:52:47.958Z,30.77
2022-12-16T07:55:33.814Z,32.53
2022-12-16T07:58:19.853Z,35.78
2022-12-16T08:01:09.366Z,44.08
2022-12-16T08:03:55.922Z,35.80
2022-12-16T08:06:42.510Z,36.83
2022-12-16T08:09:28.571Z,38.67
2022-12-16T08:12:15.095Z,32.65
2022-12-16T08:15:01.020Z,40.42
2022-12-16T08:17:46.957Z,44.47
2022-12-16T08:20:33.289Z,42.42
2022-12-16T08:23:19.382Z,41.80
2022-12-16T08:26:05.713Z,39.60
2022-12-16T08:28:52.201Z,43.67
2022-12-16T08:31:39.142Z,41.92
2022-12-16T08:34:24.786Z,45.00
2022-12-16T08:37:10.933Z,52.35
2022-12-16T08:40:18.011Z,44.63
2022-12-16T08:43:07.852Z,46.25
2022-12-16T08:45:57.087Z,49.45
2022-12-16T08:48:43.119Z,41.35
2022-12-16T08:51:28.931Z,54.58
2022-12-16T08:54:15.110Z,49.13
2022-12-16T08:57:00.848Z,40.72
2022-12-16T08:59:46.863Z,39.13
2022-12-16T09:02:32.980Z,46.22
2022-12-16T09:05:19.373Z,43.25
2022-12-16T09:08:05.610Z,41.90
2022-12-16T09:10:58.148Z,40.92
2022-12-16T09:13:44.308Z,40.70
2022-12-16T09:16:30.611Z,42.45
2022-12-16T09:19:17.183Z,41.08
2022-12-16T09:22:07.941Z,36.67
2022-12-16T09:24:54.103Z,38.05
2022-12-16T09:27:42.417Z,40.08
2022-12-16T09:30:29.415Z,41.60
2022-12-16T09:33:15.257Z,45.45
2022-12-16T09:36:01.249Z,39.17
2022-12-16T09:38:47.921Z,44.80
2022-12-16T09:42:02.981Z,42.05
2022-12-16T09:44:58.415Z,38.45
2022-12-16T09:48:15.593Z,47.25
2022-12-16T09:51:02.782Z,41.10
2022-12-16T09:53:52.069Z,47.47
2022-12-16T09:56:42.040Z,42.50
2022-12-16T10:05:09.964Z,41.22
2022-12-16T10:08:01.176Z,37.83
2022-12-16T10:11:19.906Z,35.22
2022-12-16T10:14:28.647Z,40.00
2022-12-16T10:17:39.182Z,42.75
2022-12-16T10:20:55.679Z,38.38
2022-12-16T10:23:57.229Z,41.47
2022-12-16T10:26:48.999Z,38.70
2022-12-16T10:29:40.836Z,36.20
2022-12-16T10:32:50.171Z,36.75
2022-12-16T10:35:42.705Z,43.17
2022-12-16T10:38:41.311Z,45.28
2022-12-16T10:41:28.100Z,37.55
2022-12-16T10:44:14.712Z,43.42
2022-12-16T10:47:00.781Z,44.38
2022-12-16T10:49:50.856Z,39.58
2022-12-16T10:52:40.585Z,49.00
2022-12-16T10:55:36.414Z,44.45
2022-12-16T10:58:41.796Z,46.05
2022-12-16T11:01:44.242Z,46.55
2022-12-16T11:04:50.234Z,48.20
2022-12-16T11:07:44.526Z,47.10
2022-12-16T11:11:00.652Z,53.22
2022-12-16T11:13:47.809Z,51.65
2022-12-16T11:16:47.590Z,54.55
2022-12-16T11:19:42.470Z,53.13
2022-12-16T11:22:40.221Z,53.67
2022-12-16T11:25:36.691Z,51.00
2022-12-16T11:28:36.015Z,53.03
2022-12-16T11:31:28.874Z,54.00
2022-12-16T11:34:16.910Z,55.65
2022-12-16T11:37:04.121Z,65.72
2022-12-16T11:40:06.956Z,76.90
2022-12-16T11:42:53.054Z,49.88
2022-12-16T11:45:40.060Z,49.33
2022-12-16T11:48:46.438Z,49.83
2022-12-16T11:51:33.390Z,49.65
2022-12-16T11:54:26.723Z,46.75
2022-12-16T11:57:13.541Z,45.95
2022-12-16T12:00:03.670Z,45.65
2022-12-16T12:03:01.556Z,43.47
2022-12-16T12:06:10.151Z,43.50
2022-12-16T12:09:09.429Z,41.35
2022-12-16T12:12:12.266Z,39.58
2022-12-16T12:15:13.942Z,45.70
2022-12-16T12:18:06.255Z,45.60
2022-12-16T12:21:00.893Z,46.95
2022-12-16T12:24:25.691Z,52.70
2022-12-16T12:27:19.168Z,50.30
2022-12-16T12:30:16.484Z,49.85
2022-12-16T12:33:15.884Z,51.85
2022-12-16T12:36:20.709Z,47.90
2022-12-16T12:39:11.191Z,49.38
2022-12-16T12:42:19.297Z,50.72
2022-12-16T12:45:30.354Z,50.85
2022-12-16T12:48:42.453Z,48.92
2022-12-16T12:51:59.127Z,52.22
2022-12-16T12:54:53.367Z,59.65
2022-12-16T12:57:42.329Z,54.60
2022-12-16T13:00:41.230Z,50.07
2022-12-16T13:03:48.554Z,53.00
2022-12-16T13:06:35.699Z,46.70
2022-12-16T13:09:45.236Z,60.35
2022-12-16T13:12:31.078Z,50.80
2022-12-16T13:15:23.179Z,60.53
2022-12-16T13:18:18.206Z,56.63
2022-12-16T13:21:44.590Z,52.65
2022-12-16T13:24:58.005Z,49.50
2022-12-16T13:27:45.435Z,53.33
2022-12-16T13:30:31.310Z,48.70
2022-12-16T13:33:25.381Z,58.45
2022-12-16T13:36:16.425Z,54.30
2022-12-16T13:39:09.966Z,53.08
2022-12-16T13:41:55.866Z,51.30
2022-12-16T13:45:00.305Z,52.53
2022-12-16T13:48:12.630Z,42.47
2022-12-16T13:51:00.520Z,53.17
2022-12-16T13:53:48.168Z,41.13
2022-12-16T13:56:42.247Z,46.95
2022-12-16T13:59:43.767Z,46.40
2022-12-16T14:02:58.824Z,40.65
2022-12-16T14:05:47.963Z,44.70
2022-12-16T14:08:36.068Z,35.22
2022-12-16T14:11:32.942Z,41.95
2022-12-16T14:14:40.781Z,33.40
2022-12-16T14:17:33.703Z,34.55
2022-12-16T14:20:49.225Z,34.35
2022-12-16T14:23:58.568Z,35.50
2022-12-16T14:26:45.404Z,35.92
2022-12-16T14:29:40.739Z,36.72
2022-12-16T14:32:42.132Z,45.08
2022-12-16T14:35:46.513Z,37.08
2022-12-16T14:38:47.649Z,42.25
2022-12-16T14:41:36.508Z,43.15
2022-12-16T14:44:24.280Z,43.10
2022-12-16T14:47:10.680Z,57.47
2022-12-16T14:50:10.519Z,42.75
2022-12-16T14:52:57.107Z,39.47
2022-12-16T14:55:53.385Z,36.83
2022-12-16T14:58:41.858Z,41.03
2022-12-16T15:01:33.966Z,40.38
2022-12-16T15:04:23.026Z,38.30
2022-12-16T15:07:11.785Z,36.15
2022-12-16T15:10:04.442Z,37.63
2022-12-16T15:12:53.875Z,38.15
2022-12-16T15:16:04.158Z,41.25
2022-12-16T15:18:57.727Z,35.92
2022-12-16T15:21:44.233Z,30.77
2022-12-16T15:24:35.782Z,35.45
2022-12-16T15:27:40.264Z,33.55
2022-12-16T15:30:54.172Z,36.20
2022-12-16T15:33:43.829Z,24.60
2022-12-16T15:36:43.536Z,31.95
2022-12-16T15:39:41.545Z,33.97
2022-12-16T15:42:43.585Z,31.88
2022-12-16T15:45:38.802Z,33.45
2022-12-16T15:48:31.724Z,35.05
2022-12-16T15:51:17.713Z,32.97
2022-12-16T15:54:04.141Z,35.35
2022-12-16T15:57:02.914Z,31.10
2022-12-16T15:59:51.481Z,34.88
2022-12-16T16:02:44.557Z,28.15
2022-12-16T16:05:31.464Z,31.83
2022-12-16T16:08:17.393Z,32.17
2022-12-16T16:11:03.955Z,30.55
2022-12-16T16:13:50.528Z,29.73
2022-12-16T16:16:36.684Z,29.88
2022-12-16T16:19:23.565Z,35.15
2022-12-16T16:22:09.664Z,28.75
2022-12-16T16:24:55.590Z,29.95
2022-12-16T16:27:41.814Z,29.77
2022-12-16T16:30:29.577Z,30.73
2022-12-16T16:33:15.822Z,28.15
2022-12-16T16:36:01.659Z,32.05
2022-12-16T16:38:47.674Z,34.75
2022-12-16T16:41:34.481Z,29.70
2022-12-16T16:44:20.529Z,32.83
2022-12-16T16:47:06.885Z,34.22
2022-12-16T16:49:57.076Z,29.83
2022-12-16T16:52:44.396Z,31.65
2022-12-16T16:55:36.690Z,32.67
2022-12-16T16:58:44.693Z,35.58
2022-12-16T17:01:32.408Z,39.78
2022-12-16T17:04:18.297Z,39.00
2022-12-16T17:07:04.675Z,37.15
2022-12-16T17:09:50.826Z,38.50
2022-12-16T17:12:48.520Z,34.72
2022-12-16T17:15:47.951Z,37.67
2022-12-16T17:18:36.452Z,45.47
2022-12-16T17:21:22.620Z,40.25
2022-12-16T17:24:08.662Z,37.20
2022-12-16T17:27:00.309Z,39.83
2022-12-16T17:29:46.817Z,39.38
2022-12-16T17:32:33.237Z,42.55
2022-12-16T17:35:19.590Z,41.92
2022-12-16T17:38:05.885Z,37.50
2022-12-16T17:40:52.075Z,39.95
2022-12-16T17:43:38.267Z,41.28
2022-12-16T17:46:26.070Z,39.22
2022-12-16T17:49:13.462Z,36.88
2022-12-16T17:52:01.065Z,37.42
2022-12-16T17:54:47.484Z,42.65
2022-12-16T17:57:33.661Z,50.10
2022-12-16T18:00:20.073Z,39.95
2022-12-16T18:03:06.900Z,38.97
2022-12-16T18:05:52.781Z,45.17
2022-12-16T18:08:38.828Z,43.55
2022-12-16T18:11:39.031Z,43.92
2022-12-16T18:14:25.311Z,44.40
2022-12-16T18:17:11.471Z,40.50
2022-12-16T18:19:57.816Z,45.03
2022-12-16T18:22:44.125Z,39.67
2022-12-16T18:25:30.632Z,39.88
2022-12-16T18:28:19.570Z,41.00
2022-12-16T18:31:05.901Z,43.67
2022-12-16T18:33:52.716Z,40.83
2022-12-16T18:36:38.924Z,42.20
2022-12-16T18:39:25.412Z,45.47
2022-12-16T18:42:11.531Z,45.78
2022-12-16T18:45:01.251Z,46.67
2022-12-16T18:50:37.751Z,41.38
2022-12-16T18:53:24.656Z,41.55
2022-12-16T18:56:22.719Z,42.10
2022-12-16T18:59:09.146Z,46.30
2022-12-16T19:01:55.321Z,43.50
2022-12-16T19:04:41.784Z,46.80
2022-12-16T19:07:31.726Z,47.83
2022-12-16T19:10:20.098Z,45.17
2022-12-16T19:13:06.403Z,48.15
2022-12-16T19:15:52.849Z,49.83
2022-12-16T19:18:39.214Z,50.55
2022-12-16T19:21:25.282Z,55.63
2022-12-16T19:24:12.096Z,54.03
2022-12-16T19:26:58.267Z,52.38
2022-12-16T19:29:44.309Z,58.33
2022-12-16T19:32:30.359Z,59.58
2022-12-16T19:35:27.015Z,57.97
2022-12-16T19:38:13.357Z,57.85
2022-12-16T19:41:08.687Z,60.50
2022-12-16T19:44:00.150Z,56.72
2022-12-16T19:46:49.663Z,63.53
2022-12-16T19:49:40.708Z,60.92
2022-12-16T19:52:30.231Z,59.85
2022-12-16T19:55:17.710Z,61.90
2022-12-16T19:58:23.892Z,58.58
2022-12-16T20:01:10.549Z,59.05
2022-12-16T20:03:58.492Z,64.87
2022-12-16T20:06:44.965Z,61.03
2022-12-16T20:09:31.707Z,66.57
2022-12-16T20:12:17.341Z,62.58
2022-12-16T20:15:03.223Z,71.97
2022-12-16T20:17:49.332Z,68.13
2022-12-16T20:20:35.599Z,78.43
2022-12-16T20:23:21.908Z,67.05
2022-12-16T20:26:15.135Z,69.80
2022-12-16T20:29:01.795Z,73.47
2022-12-16T20:31:48.405Z,69.40
2022-12-16T20:34:34.526Z,73.32
2022-12-16T20:37:20.594Z,76.53
2022-12-16T20:40:06.384Z,67.38
2022-12-16T20:42:53.525Z,68.47
2022-12-16T20:45:39.730Z,69.40
2022-12-16T20:48:32.394Z,70.97
2022-12-16T20:54:29.309Z,71.32
2022-12-16T20:57:15.521Z,70.45
2022-12-16T21:00:01.585Z,77.22
2022-12-16T21:02:48.975Z,75.00
2022-12-16T21:05:35.517Z,76.07
2022-12-16T21:08:21.696Z,71.95
2022-12-16T21:11:07.613Z,79.90
2022-12-16T21:13:56.296Z,75.05
2022-12-16T21:16:43.062Z,70.82
2022-12-16T21:19:33.347Z,78.82
2022-12-16T21:22:20.220Z,73.45
2022-12-16T21:25:06.164Z,70.25
2022-12-16T21:28:05.749Z,67.57
2022-12-16T21:30:51.865Z,72.97
2022-12-16T21:33:39.328Z,72.38
2022-12-16T21:36:25.615Z,65.70
2022-12-16T21:39:11.578Z,64.07
2022-12-16T21:41:57.588Z,75.65
2022-12-16T21:44:43.790Z,70.60
2022-12-16T21:47:29.581Z,65.45
2022-12-16T21:50:15.547Z,66.90
2022-12-16T21:53:01.581Z,73.53
2022-12-16T21:55:47.521Z,85.13
2022-12-16T21:58:34.398Z,73.65
2022-12-16T22:01:20.625Z,77.63
2022-12-16T22:04:06.691Z,66.43
2022-12-16T22:06:53.752Z,69.13
2022-12-16T22:09:40.013Z,67.07
2022-12-16T22:12:26.573Z,68.72
2022-12-16T22:15:12.673Z,70.82
2022-12-16T22:17:58.993Z,72.05
2022-12-16T22:20:45.616Z,70.10
2022-12-16T22:23:31.258Z,65.90
2022-12-16T22:26:18.412Z,68.25
2022-12-16T22:29:04.623Z,67.00
2022-12-16T22:31:50.438Z,67.63
2022-12-16T22:34:36.783Z,69.05
2022-12-16T22:37:22.650Z,68.38
2022-12-16T22:40:08.774Z,72.95
2022-12-16T22:42:56.315Z,69.63
2022-12-16T22:45:41.883Z,62.70
2022-12-16T22:48:30.694Z,72.07
2022-12-16T22:51:16.712Z,72.63
2022-12-16T22:54:10.563Z,69.32
2022-12-16T22:56:57.413Z,72.00
2022-12-16T22:59:43.472Z,70.97
2022-12-16T23:02:29.544Z,66.53
2022-12-16T23:05:15.846Z,71.68
2022-12-16T23:08:02.122Z,74.53
2022-12-16T23:10:48.160Z,73.78
2022-12-16T23:13:34.657Z,70.28
2022-12-16T23:16:20.409Z,67.53
2022-12-16T23:19:06.683Z,62.25
2022-12-16T23:21:52.688Z,60.47
2022-12-16T23:24:39.532Z,57.78
2022-12-16T23:27:25.773Z,70.07
2022-12-16T23:30:11.632Z,57.72
2022-12-16T23:32:58.143Z,60.10
2022-12-16T23:35:44.525Z,58.85
2022-12-16T23:38:30.619Z,64.85
2022-12-16T23:41:25.439Z,62.45
2022-12-16T23:44:11.829Z,57.20
2022-12-16T23:46:57.783Z,67.07
2022-12-16T23:49:43.696Z,60.15
2022-12-16T23:52:30.116Z,65.63
2022-12-16T23:55:16.194Z,63.30
2022-12-16T23:58:02.068Z,64.45
